createdAt,value
2023-02-02T00:02:01.456Z,3.00
2023-02-02T00:04:31.235Z,3.00
2023-02-02T00:06:58.675Z,3.00
2023-02-02T00:09:27.999Z,3.00
2023-02-02T00:11:55.373Z,3.00
2023-02-02T00:14:22.069Z,3.10
2023-02-02T00:16:53.679Z,3.00
2023-02-02T00:19:23.041Z,3.10
2023-02-02T00:21:49.900Z,3.10
2023-02-02T00:24:20.724Z,3.10
2023-02-02T00:26:50.532Z,3.00
2023-02-02T00:29:20.764Z,3.00
2023-02-02T00:31:47.781Z,3.00
2023-02-02T00:34:15.536Z,3.00
2023-02-02T00:36:42.898Z,3.00
2023-02-02T00:39:10.116Z,2.90
2023-02-02T00:41:36.868Z,2.90
2023-02-02T00:44:22.158Z,2.90
2023-02-02T00:46:48.815Z,2.90
2023-02-02T00:49:15.527Z,2.90
2023-02-02T00:51:42.328Z,2.80
2023-02-02T00:54:09.118Z,2.80
2023-02-02T00:56:36.460Z,2.70
2023-02-02T00:59:03.198Z,2.70
2023-02-02T01:01:29.925Z,2.70
2023-02-02T01:03:56.677Z,2.70
2023-02-02T01:06:23.328Z,2.70
2023-02-02T01:08:50.118Z,2.70
2023-02-02T01:11:17.117Z,2.60
2023-02-02T01:13:44.337Z,2.60
2023-02-02T01:16:11.900Z,2.60
2023-02-02T01:18:39.980Z,2.60
2023-02-02T01:21:09.622Z,2.60
2023-02-02T01:23:37.733Z,2.60
2023-02-02T01:26:07.172Z,2.50
2023-02-02T01:28:34.470Z,2.50
2023-02-02T01:31:09.689Z,2.50
2023-02-02T01:33:36.895Z,2.60
2023-02-02T01:36:07.495Z,2.60
2023-02-02T01:38:34.970Z,2.60
2023-02-02T01:41:04.400Z,2.60
2023-02-02T01:43:57.347Z,2.60
2023-02-02T01:46:32.371Z,2.60
2023-02-02T01:49:01.225Z,2.70
2023-02-02T01:51:36.704Z,2.70
2023-02-02T01:54:07.669Z,2.70
2023-02-02T01:56:41.220Z,2.60
2023-02-02T01:59:08.349Z,2.70
2023-02-02T02:01:35.107Z,2.70
2023-02-02T02:04:02.089Z,2.70
2023-02-02T02:06:29.294Z,2.70
2023-02-02T02:09:00.523Z,2.70
2023-02-02T02:11:27.462Z,2.70
2023-02-02T02:14:15.702Z,2.70
2023-02-02T02:17:01.490Z,2.70
2023-02-02T02:20:18.029Z,2.70
2023-02-02T02:23:41.811Z,2.70
2023-02-02T02:26:36.445Z,2.60
2023-02-02T02:29:35.788Z,2.60
2023-02-02T02:36:15.469Z,2.60
2023-02-02T02:39:09.309Z,2.40
2023-02-02T02:41:42.743Z,2.40
2023-02-02T02:44:14.129Z,2.50
2023-02-02T02:46:41.877Z,2.50
2023-02-02T02:49:10.690Z,2.50
2023-02-02T02:51:49.358Z,2.50
2023-02-02T02:54:37.962Z,2.50
2023-02-02T02:57:38.312Z,2.40
2023-02-02T03:00:29.740Z,2.50
2023-02-02T03:03:09.242Z,2.50
2023-02-02T03:06:09.838Z,2.50
2023-02-02T03:08:46.261Z,2.50
2023-02-02T03:11:15.548Z,2.50
2023-02-02T03:13:43.107Z,2.50
2023-02-02T03:16:10.683Z,2.50
2023-02-02T03:18:38.153Z,2.50
2023-02-02T03:21:05.082Z,2.50
2023-02-02T03:23:31.767Z,2.50
2023-02-02T03:25:59.597Z,2.50
2023-02-02T03:28:27.038Z,2.50
2023-02-02T03:30:54.688Z,2.50
2023-02-02T03:33:21.950Z,2.60
2023-02-02T03:35:48.657Z,2.60
2023-02-02T03:38:15.323Z,2.60
2023-02-02T03:40:42.061Z,2.60
2023-02-02T03:43:08.839Z,2.50
2023-02-02T03:45:35.548Z,2.40
2023-02-02T03:48:05.877Z,2.40
2023-02-02T03:50:33.054Z,2.40
2023-02-02T03:53:00.298Z,2.40
2023-02-02T03:55:27.052Z,2.40
2023-02-02T03:57:53.795Z,2.40
2023-02-02T04:00:21.255Z,2.40
2023-02-02T04:02:48.048Z,2.40
2023-02-02T04:05:14.839Z,2.40
2023-02-02T04:07:41.536Z,2.40
2023-02-02T04:10:08.763Z,2.50
2023-02-02T04:12:35.698Z,2.50
2023-02-02T04:15:02.443Z,2.50
2023-02-02T04:17:29.113Z,2.50
2023-02-02T04:19:58.320Z,2.50
2023-02-02T04:22:25.975Z,2.50
2023-02-02T04:24:52.779Z,2.50
2023-02-02T04:27:19.715Z,2.50
2023-02-02T04:29:46.426Z,2.50
2023-02-02T04:32:15.754Z,2.50
2023-02-02T04:34:42.933Z,2.40
2023-02-02T04:37:10.399Z,2.40
2023-02-02T04:39:37.401Z,2.30
2023-02-02T04:42:04.359Z,2.40
2023-02-02T04:44:31.002Z,2.40
2023-02-02T04:46:57.766Z,2.30
2023-02-02T04:49:24.527Z,2.30
2023-02-02T04:51:51.299Z,2.30
2023-02-02T04:54:18.131Z,2.30
2023-02-02T04:56:44.851Z,2.30
2023-02-02T04:59:11.597Z,2.40
2023-02-02T05:01:38.267Z,2.40
2023-02-02T05:04:05.106Z,2.40
2023-02-02T05:06:31.779Z,2.40
2023-02-02T05:08:58.456Z,2.40
2023-02-02T05:11:25.132Z,2.40
2023-02-02T05:13:53.709Z,2.40
2023-02-02T05:16:21.454Z,2.40
2023-02-02T05:18:53.487Z,2.40
2023-02-02T05:21:21.198Z,2.40
2023-02-02T05:23:48.317Z,2.40
2023-02-02T05:26:19.411Z,2.40
2023-02-02T05:28:46.182Z,2.40
2023-02-02T05:31:13.131Z,2.40
2023-02-02T05:33:40.097Z,2.40
2023-02-02T05:36:07.475Z,2.40
2023-02-02T05:38:34.676Z,2.40
2023-02-02T05:41:01.556Z,2.30
2023-02-02T05:43:30.251Z,2.30
2023-02-02T05:45:57.020Z,2.30
2023-02-02T05:48:23.746Z,2.30
2023-02-02T05:50:56.815Z,2.30
2023-02-02T05:53:24.228Z,2.40
2023-02-02T05:55:50.929Z,2.40
2023-02-02T05:58:17.610Z,2.40
2023-02-02T06:00:44.301Z,2.30
2023-02-02T06:03:12.898Z,2.40
2023-02-02T06:05:42.881Z,2.40
2023-02-02T06:08:09.718Z,2.40
2023-02-02T06:10:39.937Z,2.40
2023-02-02T06:13:06.879Z,2.40
2023-02-02T06:15:34.688Z,2.30
2023-02-02T06:18:01.769Z,2.40
2023-02-02T06:20:29.204Z,2.40
2023-02-02T06:22:55.939Z,2.30
2023-02-02T06:25:23.148Z,2.30
2023-02-02T06:27:50.187Z,2.30
2023-02-02T06:30:18.287Z,2.30
2023-02-02T06:32:44.971Z,2.40
2023-02-02T06:35:11.730Z,2.40
2023-02-02T06:37:39.306Z,2.40
2023-02-02T06:40:08.001Z,2.40
2023-02-02T06:42:34.807Z,2.40
2023-02-02T06:45:01.685Z,2.40
2023-02-02T06:47:28.444Z,2.40
2023-02-02T06:49:55.124Z,2.40
2023-02-02T06:52:21.776Z,2.40
2023-02-02T06:54:48.432Z,2.40
2023-02-02T06:57:15.107Z,2.40
2023-02-02T06:59:41.838Z,2.50
2023-02-02T07:02:11.789Z,2.40
2023-02-02T07:04:38.594Z,2.40
2023-02-02T07:07:05.859Z,2.40
2023-02-02T07:09:34.050Z,2.40
2023-02-02T07:12:00.775Z,2.40
2023-02-02T07:14:27.700Z,2.40
2023-02-02T07:16:54.416Z,2.40
2023-02-02T07:19:21.097Z,2.50
2023-02-02T07:21:47.760Z,2.50
2023-02-02T07:24:14.425Z,2.50
2023-02-02T07:26:41.135Z,2.50
2023-02-02T07:29:09.260Z,2.50
2023-02-02T07:31:36.900Z,2.50
2023-02-02T07:34:04.245Z,2.50
2023-02-02T07:36:31.099Z,2.50
2023-02-02T07:38:57.950Z,2.50
2023-02-02T07:41:25.091Z,2.50
2023-02-02T07:43:52.177Z,2.50
2023-02-02T07:46:19.902Z,2.50
2023-02-02T07:48:46.702Z,2.50
2023-02-02T07:51:16.230Z,2.50
2023-02-02T07:53:47.974Z,2.50
2023-02-02T07:56:16.892Z,2.50
2023-02-02T07:58:44.160Z,2.50
2023-02-02T08:01:11.575Z,2.50
2023-02-02T08:03:39.212Z,2.60
2023-02-02T08:06:12.301Z,2.50
2023-02-02T08:08:39.013Z,2.60
2023-02-02T08:11:08.000Z,2.60
2023-02-02T08:13:34.641Z,2.70
2023-02-02T08:16:01.339Z,2.70
2023-02-02T08:18:28.059Z,2.70
2023-02-02T08:20:58.832Z,2.80
2023-02-02T08:23:25.586Z,2.70
2023-02-02T08:25:52.751Z,2.80
2023-02-02T08:28:19.849Z,2.80
2023-02-02T08:30:56.648Z,2.90
2023-02-02T08:33:32.312Z,2.80
2023-02-02T08:36:25.129Z,2.90
2023-02-02T08:38:52.232Z,2.90
2023-02-02T08:41:21.444Z,2.90
2023-02-02T08:43:48.566Z,3.00
2023-02-02T08:46:17.224Z,2.90
2023-02-02T08:48:44.775Z,2.90
2023-02-02T08:51:15.105Z,3.00
2023-02-02T08:53:42.602Z,2.90
2023-02-02T08:56:16.172Z,3.00
2023-02-02T08:58:47.593Z,3.00
2023-02-02T09:01:16.096Z,3.00
2023-02-02T09:03:43.500Z,3.00
2023-02-02T09:06:14.606Z,3.00
2023-02-02T09:08:41.440Z,2.90
2023-02-02T09:11:11.484Z,3.00
2023-02-02T09:13:39.649Z,3.00
2023-02-02T09:16:08.771Z,2.90
2023-02-02T09:18:35.517Z,3.00
2023-02-02T09:21:04.959Z,3.00
2023-02-02T09:23:33.359Z,3.00
2023-02-02T09:26:10.674Z,2.90
2023-02-02T09:28:39.400Z,3.00
2023-02-02T09:31:06.771Z,2.90
2023-02-02T09:33:34.661Z,2.90
2023-02-02T09:36:08.439Z,2.90
2023-02-02T09:38:35.429Z,3.00
2023-02-02T09:41:23.238Z,3.00
2023-02-02T09:44:20.239Z,3.00
2023-02-02T09:47:14.741Z,3.00
2023-02-02T09:49:52.386Z,3.00
2023-02-02T09:52:44.328Z,3.00
2023-02-02T09:55:31.482Z,3.00
2023-02-02T09:58:21.099Z,3.00
2023-02-02T10:01:06.533Z,3.00
2023-02-02T10:04:01.162Z,3.00
2023-02-02T10:06:38.551Z,3.00
2023-02-02T10:09:25.117Z,3.00
2023-02-02T10:12:15.401Z,2.80
2023-02-02T10:15:00.580Z,2.90
2023-02-02T10:17:44.359Z,2.90
2023-02-02T10:20:23.657Z,2.90
2023-02-02T10:22:51.049Z,2.80
2023-02-02T10:25:19.009Z,2.80
2023-02-02T10:27:59.445Z,2.80
2023-02-02T10:30:45.030Z,2.80
2023-02-02T10:33:29.773Z,2.80
2023-02-02T10:36:05.474Z,2.90
2023-02-02T10:38:59.251Z,3.00
2023-02-02T10:41:41.277Z,3.00
2023-02-02T10:44:18.817Z,3.00
2023-02-02T10:46:51.220Z,3.10
2023-02-02T10:49:38.136Z,3.10
2023-02-02T10:52:13.702Z,3.20
2023-02-02T10:54:56.459Z,3.30
2023-02-02T10:57:49.514Z,3.30
2023-02-02T11:00:23.942Z,3.40
2023-02-02T11:02:52.370Z,3.50
2023-02-02T11:05:41.680Z,3.60
2023-02-02T11:08:14.437Z,3.60
2023-02-02T11:10:42.503Z,3.50
2023-02-02T11:13:15.982Z,3.50
2023-02-02T11:15:42.761Z,3.50
2023-02-02T11:18:35.685Z,3.60
2023-02-02T11:21:02.437Z,3.60
2023-02-02T11:23:29.136Z,3.60
2023-02-02T11:26:05.142Z,3.50
2023-02-02T11:28:35.791Z,3.50
2023-02-02T11:31:02.832Z,3.50
2023-02-02T11:33:35.387Z,3.50
2023-02-02T11:36:05.236Z,3.50
2023-02-02T11:38:32.544Z,3.50
2023-02-02T11:41:11.011Z,3.50
2023-02-02T11:43:44.234Z,3.50
2023-02-02T11:46:28.631Z,3.60
2023-02-02T11:48:58.402Z,3.60
2023-02-02T11:51:27.232Z,3.70
2023-02-02T11:54:15.396Z,3.70
2023-02-02T11:56:42.388Z,3.70
2023-02-02T11:59:36.134Z,3.80
2023-02-02T12:02:23.440Z,3.80
2023-02-02T12:04:52.576Z,3.80
2023-02-02T12:07:29.765Z,3.90
2023-02-02T12:10:02.235Z,3.90
2023-02-02T12:12:56.719Z,3.80
2023-02-02T12:15:48.920Z,3.90
2023-02-02T12:18:35.418Z,3.90
2023-02-02T12:21:14.189Z,4.00
2023-02-02T12:23:59.566Z,3.90
2023-02-02T12:26:30.556Z,3.90
2023-02-02T12:29:18.668Z,3.90
2023-02-02T12:31:57.276Z,3.90
2023-02-02T12:34:53.112Z,3.90
2023-02-02T12:37:45.488Z,3.80
2023-02-02T12:40:24.782Z,3.80
2023-02-02T12:43:14.035Z,3.80
2023-02-02T12:45:46.574Z,3.80
2023-02-02T12:48:22.190Z,3.70
2023-02-02T12:51:03.080Z,3.70
2023-02-02T12:54:33.413Z,3.60
2023-02-02T12:56:52.009Z,3.60
2023-02-02T12:59:37.890Z,3.50
2023-02-02T13:02:10.399Z,3.50
2023-02-02T13:04:45.516Z,3.50
2023-02-02T13:07:15.269Z,3.50
2023-02-02T13:10:03.189Z,3.50
2023-02-02T13:12:34.494Z,3.40
2023-02-02T13:15:07.736Z,3.40
2023-02-02T13:17:40.273Z,3.40
2023-02-02T13:20:28.080Z,3.40
2023-02-02T13:22:59.907Z,3.40
2023-02-02T13:25:33.920Z,3.40
2023-02-02T13:28:01.391Z,3.30
2023-02-02T13:30:40.282Z,3.30
2023-02-02T13:33:28.101Z,3.30
2023-02-02T13:35:59.004Z,3.30
2023-02-02T13:38:30.440Z,3.30
2023-02-02T13:41:04.683Z,3.30
2023-02-02T13:43:31.441Z,3.40
2023-02-02T13:46:09.106Z,3.30
2023-02-02T13:49:13.360Z,3.30
2023-02-02T13:51:53.659Z,3.30
2023-02-02T13:54:40.406Z,3.20
2023-02-02T13:57:56.973Z,3.30
2023-02-02T14:00:35.738Z,3.30
2023-02-02T14:03:05.962Z,3.30
2023-02-02T14:05:40.218Z,3.20
2023-02-02T14:08:19.733Z,3.20
2023-02-02T14:10:52.271Z,3.20
2023-02-02T14:13:40.864Z,3.20
2023-02-02T14:16:19.588Z,3.20
2023-02-02T14:18:52.096Z,3.30
2023-02-02T14:21:34.131Z,3.30
2023-02-02T14:24:25.474Z,3.20
2023-02-02T14:27:00.312Z,3.20
2023-02-02T14:29:32.965Z,3.20
2023-02-02T14:36:15.197Z,3.20
2023-02-02T14:38:59.854Z,3.20
2023-02-02T14:42:07.461Z,3.20
2023-02-02T14:44:37.477Z,3.20
2023-02-02T14:47:24.333Z,3.20
2023-02-02T14:49:56.075Z,3.20
2023-02-02T14:52:23.519Z,3.20
2023-02-02T14:54:50.214Z,3.20
2023-02-02T14:57:27.735Z,3.20
2023-02-02T14:59:56.385Z,3.20
2023-02-02T15:02:29.213Z,3.20
2023-02-02T15:05:38.699Z,3.20
2023-02-02T15:08:23.228Z,3.20
2023-02-02T15:10:56.704Z,3.10
2023-02-02T15:13:37.460Z,3.10
2023-02-02T15:16:18.279Z,3.10
2023-02-02T15:18:48.090Z,3.10
2023-02-02T15:21:18.615Z,3.10
2023-02-02T15:23:46.665Z,2.80
2023-02-02T15:26:32.719Z,3.00
2023-02-02T15:29:02.911Z,3.00
2023-02-02T15:31:35.422Z,3.00
2023-02-02T15:34:14.209Z,3.00
2023-02-02T15:36:43.661Z,3.00
2023-02-02T15:39:41.187Z,2.90
2023-02-02T15:42:37.859Z,3.00
2023-02-02T15:45:04.983Z,3.00
2023-02-02T15:47:36.869Z,3.00
2023-02-02T15:50:18.869Z,3.00
2023-02-02T15:52:48.140Z,2.90
2023-02-02T15:55:24.260Z,3.00
2023-02-02T15:57:54.276Z,3.00
2023-02-02T16:00:39.692Z,2.90
2023-02-02T16:03:14.716Z,2.90
2023-02-02T16:05:45.949Z,2.90
2023-02-02T16:08:19.360Z,3.10
2023-02-02T16:10:49.319Z,2.90
2023-02-02T16:13:25.004Z,2.90
2023-02-02T16:16:04.074Z,2.90
2023-02-02T16:18:31.009Z,2.90
2023-02-02T16:21:00.644Z,2.90
2023-02-02T16:23:37.140Z,2.90
2023-02-02T16:26:06.554Z,2.90
2023-02-02T16:28:34.309Z,2.80
2023-02-02T16:31:02.407Z,2.90
2023-02-02T16:33:38.424Z,2.90
2023-02-02T16:36:26.434Z,2.90
2023-02-02T16:38:54.585Z,2.90
2023-02-02T16:41:27.410Z,2.90
2023-02-02T16:43:54.561Z,2.90
2023-02-02T16:46:48.425Z,2.80
2023-02-02T16:49:18.904Z,2.90
2023-02-02T16:51:47.575Z,2.90
2023-02-02T16:54:20.237Z,3.00
2023-02-02T16:56:58.993Z,3.00
2023-02-02T16:59:33.464Z,2.90
2023-02-02T17:02:04.664Z,2.90
2023-02-02T17:04:33.107Z,2.90
2023-02-02T17:07:13.268Z,2.90
2023-02-02T17:09:41.697Z,2.90
2023-02-02T17:12:34.892Z,2.90
2023-02-02T17:15:28.934Z,2.90
2023-02-02T17:17:55.979Z,2.90
2023-02-02T17:20:23.023Z,3.00
2023-02-02T17:22:53.546Z,3.00
2023-02-02T17:25:27.560Z,3.00
2023-02-02T17:27:55.843Z,3.00
2023-02-02T17:30:22.846Z,3.00
2023-02-02T17:32:49.639Z,3.00
2023-02-02T17:35:19.556Z,3.00
2023-02-02T17:37:46.399Z,3.00
2023-02-02T17:40:17.735Z,2.90
2023-02-02T17:42:47.230Z,2.90
2023-02-02T17:45:21.367Z,2.90
2023-02-02T17:47:48.207Z,2.90
2023-02-02T17:50:15.274Z,2.90
2023-02-02T17:52:42.153Z,2.90
2023-02-02T17:55:13.492Z,2.90
2023-02-02T17:57:40.514Z,2.90
2023-02-02T18:00:08.438Z,2.90
2023-02-02T18:02:35.283Z,3.00
2023-02-02T18:05:05.631Z,3.00
2023-02-02T18:07:32.501Z,2.90
2023-02-02T18:09:59.191Z,3.00
2023-02-02T18:12:26.050Z,2.90
2023-02-02T18:14:52.764Z,3.00
2023-02-02T18:17:19.428Z,3.00
2023-02-02T18:19:47.237Z,3.00
2023-02-02T18:22:14.264Z,3.00
2023-02-02T18:24:41.157Z,3.00
2023-02-02T18:27:08.330Z,3.00
2023-02-02T18:29:35.277Z,3.00
2023-02-02T18:32:02.480Z,3.00
2023-02-02T18:34:32.125Z,3.00
2023-02-02T18:36:59.706Z,3.10
2023-02-02T18:39:26.381Z,3.10
2023-02-02T18:41:53.333Z,3.20
2023-02-02T18:44:20.082Z,3.10
2023-02-02T18:46:47.087Z,3.20
2023-02-02T18:49:13.730Z,3.20
2023-02-02T18:51:41.314Z,3.30
2023-02-02T18:54:10.692Z,3.30
2023-02-02T18:56:37.559Z,3.30
2023-02-02T18:59:06.046Z,3.30
2023-02-02T19:01:33.760Z,3.30
2023-02-02T19:04:00.690Z,3.30
2023-02-02T19:06:46.744Z,3.20
2023-02-02T19:09:14.218Z,3.30
2023-02-02T19:11:44.941Z,3.20
2023-02-02T19:14:26.785Z,3.20
2023-02-02T19:16:59.083Z,3.20
2023-02-02T19:19:33.431Z,3.20
2023-02-02T19:22:07.159Z,3.20
2023-02-02T19:24:39.025Z,3.20
2023-02-02T19:27:16.963Z,3.20
2023-02-02T19:29:44.754Z,3.20
2023-02-02T19:32:21.757Z,3.20
2023-02-02T19:35:01.129Z,3.20
2023-02-02T19:37:30.023Z,3.20
2023-02-02T19:40:21.908Z,3.20
2023-02-02T19:42:59.946Z,3.20
2023-02-02T19:45:31.573Z,3.20
2023-02-02T19:48:00.199Z,3.20
2023-02-02T19:50:32.365Z,3.20
2023-02-02T19:52:59.178Z,3.20
2023-02-02T19:55:29.461Z,3.20
2023-02-02T19:58:31.929Z,3.10
2023-02-02T20:01:01.463Z,3.10
2023-02-02T20:03:37.549Z,3.00
2023-02-02T20:06:05.032Z,3.00
2023-02-02T20:08:43.321Z,3.00
2023-02-02T20:11:35.269Z,3.00
2023-02-02T20:14:19.181Z,3.00
2023-02-02T20:16:55.477Z,3.10
2023-02-02T20:19:25.125Z,3.00
2023-02-02T20:21:53.240Z,3.00
2023-02-02T20:24:25.814Z,3.00
2023-02-02T20:26:55.003Z,2.90
2023-02-02T20:29:27.951Z,2.90
2023-02-02T20:31:58.422Z,2.90
2023-02-02T20:34:44.800Z,3.00
2023-02-02T20:37:29.700Z,2.90
2023-02-02T20:40:09.589Z,3.00
2023-02-02T20:42:36.254Z,3.00
2023-02-02T20:45:03.082Z,3.00
2023-02-02T20:47:30.179Z,3.00
2023-02-02T20:49:57.369Z,3.00
2023-02-02T20:52:24.275Z,3.00
2023-02-02T20:54:51.843Z,3.00
2023-02-02T20:57:18.972Z,3.00
2023-02-02T20:59:45.664Z,3.00
2023-02-02T21:02:18.806Z,3.00
2023-02-02T21:04:47.383Z,3.00
2023-02-02T21:07:16.895Z,3.00
2023-02-02T21:09:44.787Z,3.00
2023-02-02T21:12:11.720Z,3.00
2023-02-02T21:14:38.922Z,3.00
2023-02-02T21:17:14.952Z,2.90
2023-02-02T21:19:43.452Z,2.90
2023-02-02T21:22:11.063Z,2.90
2023-02-02T21:24:38.076Z,2.90
2023-02-02T21:27:05.022Z,3.00
2023-02-02T21:29:32.975Z,3.00
2023-02-02T21:32:02.115Z,3.00
2023-02-02T21:34:30.217Z,2.90
2023-02-02T21:36:58.248Z,2.90
2023-02-02T21:39:31.428Z,2.90
2023-02-02T21:42:00.854Z,2.90
2023-02-02T21:44:27.649Z,2.90
2023-02-02T21:46:54.313Z,2.80
2023-02-02T21:49:35.432Z,2.80
2023-02-02T21:52:17.327Z,2.80
2023-02-02T21:54:45.397Z,2.80
2023-02-02T21:57:16.582Z,2.80
2023-02-02T21:59:45.556Z,2.80
2023-02-02T22:02:21.436Z,2.90
2023-02-02T22:04:48.218Z,2.80
2023-02-02T22:07:16.211Z,2.90
2023-02-02T22:09:48.489Z,2.90
2023-02-02T22:12:20.354Z,2.90
2023-02-02T22:14:48.664Z,2.90
2023-02-02T22:17:22.664Z,2.90
2023-02-02T22:20:10.802Z,2.80
2023-02-02T22:22:45.415Z,2.80
2023-02-02T22:25:17.993Z,2.80
2023-02-02T22:27:46.464Z,2.80
2023-02-02T22:30:39.408Z,2.80
2023-02-02T22:33:09.062Z,2.90
2023-02-02T22:35:36.425Z,2.80
2023-02-02T22:38:03.600Z,2.90
2023-02-02T22:40:30.643Z,2.80
2023-02-02T22:43:05.737Z,2.80
2023-02-02T22:45:32.438Z,2.80
2023-02-02T22:47:59.448Z,2.80
2023-02-02T22:50:29.100Z,2.80
2023-02-02T22:52:56.326Z,2.80
2023-02-02T22:55:23.474Z,2.80
2023-02-02T22:57:50.307Z,2.70
2023-02-02T23:00:28.678Z,2.80
2023-02-02T23:02:56.648Z,2.80
2023-02-02T23:05:25.173Z,2.70
2023-02-02T23:07:53.454Z,2.80
2023-02-02T23:10:23.146Z,2.80
2023-02-02T23:12:53.431Z,2.80
2023-02-02T23:15:20.927Z,2.90
2023-02-02T23:17:47.999Z,2.90
2023-02-02T23:20:15.763Z,2.90
2023-02-02T23:22:42.877Z,2.90
2023-02-02T23:25:10.714Z,2.90
2023-02-02T23:27:37.644Z,2.80
2023-02-02T23:30:05.877Z,2.80
2023-02-02T23:32:32.886Z,2.80
2023-02-02T23:34:59.810Z,2.60
2023-02-02T23:37:26.622Z,2.60
2023-02-02T23:39:53.258Z,2.60
2023-02-02T23:42:19.908Z,2.60
2023-02-02T23:44:46.613Z,2.60
2023-02-02T23:47:13.416Z,2.70
2023-02-02T23:49:40.333Z,2.70
2023-02-02T23:52:07.335Z,2.70
2023-02-02T23:54:34.475Z,2.50
2023-02-02T23:57:01.856Z,2.50
2023-02-02T23:59:28.489Z,2.50
